Time;durP1;ratioP1;P1;durP2;ratioP2;P2;SDS_P1;SDS_P2;PMS_P1;PMS_P2;Temp;Humidity;BMP_temperature;BMP_pressure;BME280_temperature;BME280_humidity;BME280_pressure;Samples;Min_cycle;Max_cycle;Signal;HPM_P1;HPM_P2
2022/11/24 00:01:17;;;;;;;25.05;12.68;;;8.80;99.90;;;;;;5073020;28;20190;-76
2022/11/24 00:03:44;;;;;;;20.48;12.38;;;8.80;99.90;;;;;;5073563;28;20190;-75
2022/11/24 00:06:13;;;;;;;26.00;13.43;;;8.80;99.90;;;;;;5063027;28;20638;-77
2022/11/24 00:08:41;;;;;;;24.70;12.73;;;8.80;99.90;;;;;;5057687;28;20205;-77
2022/11/24 00:11:13;;;;;;;27.13;13.68;;;8.70;99.90;;;;;;5072516;28;20178;-76
2022/11/24 00:13:40;;;;;;;26.67;13.32;;;8.70;99.90;;;;;;5073308;28;20638;-75
2022/11/24 00:16:11;;;;;;;29.85;14.32;;;8.70;99.90;;;;;;5068611;28;20218;-75
2022/11/24 00:18:39;;;;;;;30.27;14.30;;;8.70;99.90;;;;;;5073348;28;20180;-76
2022/11/24 00:21:05;;;;;;;26.65;14.13;;;8.70;99.90;;;;;;5072987;28;20182;-76
2022/11/24 00:23:31;;;;;;;29.85;14.07;;;8.60;99.90;;;;;;5072244;28;20547;-75
2022/11/24 00:26:08;;;;;;;28.08;13.55;;;8.60;99.90;;;;;;5061422;28;20197;-79
2022/11/24 00:28:35;;;;;;;27.25;13.60;;;8.60;99.90;;;;;;5058162;28;20179;-76
2022/11/24 00:31:02;;;;;;;31.02;13.40;;;8.60;99.90;;;;;;5061144;28;20198;-75
2022/11/24 00:33:27;;;;;;;29.25;13.48;;;8.60;99.90;;;;;;5063613;28;20552;-76
2022/11/24 00:35:57;;;;;;;27.15;12.65;;;8.60;99.90;;;;;;5069409;28;20199;-75
2022/11/24 00:38:23;;;;;;;28.25;12.73;;;8.60;99.90;;;;;;5063815;28;20202;-75
2022/11/24 00:40:50;;;;;;;26.48;11.95;;;8.60;99.90;;;;;;5070945;28;20210;-76
2022/11/24 00:43:16;;;;;;;31.83;12.68;;;8.50;99.90;;;;;;5070846;28;20186;-75
2022/11/24 00:45:41;;;;;;;31.30;12.05;;;8.50;99.90;;;;;;5071778;28;20644;-75
2022/11/24 00:48:08;;;;;;;28.80;12.57;;;8.50;99.90;;;;;;5068915;28;20194;-76
2022/11/24 00:50:34;;;;;;;25.65;11.07;;;8.60;99.90;;;;;;5067772;28;20232;-80
2022/11/24 00:52:59;;;;;;;33.53;12.52;;;8.50;99.90;;;;;;5061865;28;20183;-75
2022/11/24 00:55:25;;;;;;;29.58;11.82;;;8.40;99.90;;;;;;5073651;28;20218;-75
2022/11/24 00:57:51;;;;;;;33.67;12.02;;;8.50;99.90;;;;;;5063459;28;20272;-76
2022/11/24 01:00:17;;;;;;;31.30;11.07;;;8.50;99.90;;;;;;5072937;28;20205;-76
2022/11/24 01:02:43;;;;;;;22.67;10.98;;;8.50;99.90;;;;;;5057728;28;20190;-76
2022/11/24 01:05:09;;;;;;;29.63;11.20;;;8.40;99.90;;;;;;5080180;28;20273;-75
2022/11/24 01:07:35;;;;;;;27.92;10.85;;;8.50;99.90;;;;;;5080518;28;20252;-76
2022/11/24 01:10:00;;;;;;;32.17;10.35;;;8.50;99.90;;;;;;5072096;28;20191;-77
2022/11/24 01:12:27;;;;;;;28.15;10.82;;;8.50;99.90;;;;;;5061758;28;20284;-78
2022/11/24 01:14:53;;;;;;;27.23;10.82;;;8.50;99.90;;;;;;5070963;28;20210;-75
2022/11/24 01:17:18;;;;;;;31.15;10.40;;;8.50;99.90;;;;;;5071102;28;21231;-74
2022/11/24 01:19:48;;;;;;;26.77;10.55;;;8.50;99.90;;;;;;5071687;28;20606;-77
2022/11/24 01:22:14;;;;;;;25.15;10.00;;;8.50;99.90;;;;;;5066748;28;20179;-75
2022/11/24 01:24:40;;;;;;;26.75;10.40;;;8.40;99.90;;;;;;5065111;28;20187;-75
2022/11/24 01:27:05;;;;;;;26.88;10.00;;;8.40;99.90;;;;;;5071736;28;20182;-78
2022/11/24 01:29:31;;;;;;;34.28;9.38;;;8.40;99.90;;;;;;5057003;28;20269;-76
2022/11/24 01:31:57;;;;;;;28.63;9.35;;;8.40;99.90;;;;;;5070897;28;20221;-80
2022/11/24 01:34:22;;;;;;;28.33;9.60;;;8.40;99.90;;;;;;5054037;28;20218;-75
2022/11/24 01:36:48;;;;;;;32.60;9.90;;;8.40;99.90;;;;;;5069095;28;20663;-75
2022/11/24 01:39:14;;;;;;;31.88;9.40;;;8.40;99.90;;;;;;5053071;28;20183;-77
2022/11/24 01:41:40;;;;;;;31.98;9.30;;;8.30;99.90;;;;;;5072963;28;20186;-76
2022/11/24 01:44:26;;;;;;;24.65;8.80;;;8.30;99.90;;;;;;5068517;28;20661;-76
2022/11/24 01:47:17;;;;;;;30.17;9.18;;;8.30;99.90;;;;;;5071469;28;20174;-77
2022/11/24 01:49:50;;;;;;;34.28;8.77;;;8.30;99.90;;;;;;5044651;28;20214;-76
2022/11/24 01:52:24;;;;;;;31.95;8.07;;;8.20;99.90;;;;;;5054945;28;20178;-76
2022/11/24 01:55:10;;;;;;;29.83;8.98;;;8.20;99.90;;;;;;5054046;28;20255;-77
2022/11/24 01:57:40;;;;;;;23.10;8.15;;;8.20;99.90;;;;;;5060615;28;20313;-76
2022/11/24 02:00:08;;;;;;;29.30;8.05;;;8.20;99.90;;;;;;5061490;28;20179;-76
2022/11/24 02:02:41;;;;;;;26.02;8.38;;;8.20;99.90;;;;;;5062901;28;20239;-75
2022/11/24 02:05:17;;;;;;;30.10;8.52;;;8.30;99.90;;;;;;5055888;28;20201;-78
2022/11/24 02:07:43;;;;;;;27.33;8.55;;;8.30;99.90;;;;;;5061176;28;20174;-75
2022/11/24 02:10:12;;;;;;;25.92;8.32;;;8.30;99.90;;;;;;5063795;28;20713;-75
2022/11/24 02:12:45;;;;;;;20.77;7.40;;;8.30;99.90;;;;;;5057566;28;20265;-77
2022/11/24 02:15:14;;;;;;;28.90;7.90;;;8.30;99.90;;;;;;5063684;28;20296;-75
2022/11/24 02:17:40;;;;;;;29.05;7.45;;;8.30;99.90;;;;;;5067967;28;20197;-75
2022/11/24 02:20:07;;;;;;;33.00;7.72;;;8.30;99.90;;;;;;5066432;28;20183;-75
2022/11/24 02:23:20;;;;;;;28.50;7.95;;;8.40;99.90;;;;;;5056973;28;20198;-75
2022/11/24 02:25:45;;;;;;;25.05;7.55;;;8.40;99.90;;;;;;5031786;28;20202;-76
2022/11/24 02:28:15;;;;;;;24.42;6.53;;;8.40;99.90;;;;;;5055458;28;20183;-78
2022/11/24 02:30:41;;;;;;;26.15;6.57;;;8.40;99.90;;;;;;5061763;28;20619;-74
2022/11/24 02:33:06;;;;;;;27.23;6.68;;;8.50;99.90;;;;;;5063710;28;20186;-75
2022/11/24 02:35:32;;;;;;;31.63;7.13;;;8.40;99.90;;;;;;5065738;28;20294;-76
2022/11/24 02:37:58;;;;;;;25.15;7.18;;;8.40;99.90;;;;;;5057149;28;20232;-78
2022/11/24 02:40:26;;;;;;;25.15;6.50;;;8.40;99.90;;;;;;5073389;28;20190;-75
2022/11/24 02:42:57;;;;;;;21.75;5.88;;;8.40;99.90;;;;;;5062836;28;20179;-75
2022/11/24 02:45:24;;;;;;;30.23;6.82;;;8.40;99.90;;;;;;5071661;28;20259;-77
2022/11/24 02:47:50;;;;;;;28.75;6.72;;;8.40;99.90;;;;;;5065578;28;20227;-74
2022/11/24 02:50:16;;;;;;;23.20;6.22;;;8.40;99.90;;;;;;5071003;28;20641;-77
2022/11/24 02:52:41;;;;;;;19.45;5.97;;;8.40;99.90;;;;;;5071963;28;20317;-76
2022/11/24 02:55:07;;;;;;;25.65;6.88;;;8.30;99.90;;;;;;5076279;28;20218;-74
2022/11/24 02:57:33;;;;;;;25.70;6.57;;;8.30;99.90;;;;;;5062303;28;20222;-81
2022/11/24 02:59:59;;;;;;;26.70;6.80;;;8.30;99.90;;;;;;5064760;28;20185;-77
2022/11/24 03:02:24;;;;;;;21.45;5.50;;;8.30;99.90;;;;;;5072120;28;20190;-76
2022/11/24 03:04:50;;;;;;;24.13;6.43;;;8.30;99.90;;;;;;5077780;28;20209;-77
2022/11/24 03:07:16;;;;;;;28.10;6.13;;;8.30;99.90;;;;;;5072991;28;20256;-77
2022/11/24 03:09:42;;;;;;;30.58;5.55;;;8.30;99.90;;;;;;5070509;28;20586;-79
2022/11/24 03:12:08;;;;;;;25.17;6.20;;;8.40;99.90;;;;;;5072695;28;20174;-77
2022/11/24 03:14:34;;;;;;;25.95;5.72;;;8.40;99.90;;;;;;5075608;28;20210;-77
2022/11/24 03:16:59;;;;;;;27.45;6.38;;;8.40;99.90;;;;;;5072872;28;20182;-77
2022/11/24 03:19:25;;;;;;;21.35;5.05;;;8.40;99.90;;;;;;5063440;28;20195;-77
2022/11/24 03:21:51;;;;;;;30.40;6.22;;;8.40;99.90;;;;;;5060078;28;20189;-80
2022/11/24 03:24:16;;;;;;;27.63;6.10;;;8.30;99.90;;;;;;5067405;28;20653;-77
2022/11/24 03:26:42;;;;;;;27.58;5.68;;;8.40;99.90;;;;;;5072140;28;20185;-77
2022/11/24 03:29:08;;;;;;;23.15;5.25;;;8.40;99.90;;;;;;5072117;28;20186;-80
2022/11/24 03:31:34;;;;;;;27.65;5.25;;;8.40;99.90;;;;;;5074239;28;20637;-77
2022/11/24 03:33:59;;;;;;;28.35;5.85;;;8.40;99.90;;;;;;5069911;28;20178;-81
2022/11/24 03:36:25;;;;;;;21.25;5.50;;;8.40;99.90;;;;;;5088877;28;20301;-77
2022/11/24 03:38:51;;;;;;;25.30;5.68;;;8.30;99.90;;;;;;5061212;28;20634;-77
2022/11/24 03:41:17;;;;;;;28.58;6.10;;;8.30;99.90;;;;;;5064629;28;20210;-76
2022/11/24 03:43:42;;;;;;;26.08;5.50;;;8.40;99.90;;;;;;5071130;28;20171;-77
2022/11/24 03:46:08;;;;;;;23.08;5.13;;;8.30;99.90;;;;;;5075178;28;20273;-75
2022/11/24 03:48:34;;;;;;;27.30;5.13;;;8.40;99.90;;;;;;5070731;28;20634;-76
2022/11/24 03:51:02;;;;;;;31.48;5.95;;;8.40;99.90;;;;;;5072429;28;20273;-76
2022/11/24 03:53:29;;;;;;;20.38;5.50;;;8.40;99.90;;;;;;5073618;28;20265;-75
2022/11/24 03:55:55;;;;;;;20.75;5.35;;;8.30;99.90;;;;;;5073274;28;20210;-75
2022/11/24 03:58:21;;;;;;;24.17;5.78;;;8.40;99.90;;;;;;5069280;28;20226;-77
2022/11/24 04:00:49;;;;;;;26.85;5.25;;;8.40;99.90;;;;;;5065904;28;20265;-76
2022/11/24 04:03:15;;;;;;;26.80;5.65;;;8.40;99.90;;;;;;5073609;28;20228;-76
2022/11/24 04:05:41;;;;;;;25.08;5.20;;;8.40;99.90;;;;;;5083706;28;20181;-75
2022/11/24 04:08:07;;;;;;;26.30;5.32;;;8.40;99.90;;;;;;5082365;28;20175;-76
2022/11/24 04:10:35;;;;;;;25.08;5.10;;;8.30;99.90;;;;;;5072336;28;20733;-75
2022/11/24 04:13:02;;;;;;;23.67;4.85;;;8.40;99.90;;;;;;5073145;28;20179;-75
2022/11/24 04:15:28;;;;;;;25.42;4.88;;;8.40;99.90;;;;;;5065849;28;20223;-76
2022/11/24 04:17:55;;;;;;;27.60;5.47;;;8.30;99.90;;;;;;5060716;28;20174;-75
2022/11/24 04:20:21;;;;;;;25.52;5.13;;;8.30;99.90;;;;;;5060918;28;20274;-78
2022/11/24 04:22:48;;;;;;;22.35;4.70;;;8.30;99.90;;;;;;5062720;28;20689;-75
2022/11/24 04:25:16;;;;;;;22.98;5.05;;;8.30;99.90;;;;;;5071277;28;20210;-75
2022/11/24 04:27:42;;;;;;;22.63;5.15;;;8.30;99.90;;;;;;5071147;28;20182;-75
2022/11/24 04:30:09;;;;;;;25.05;4.75;;;8.30;99.90;;;;;;5065643;28;20179;-76
2022/11/24 04:32:35;;;;;;;27.08;5.20;;;8.30;99.90;;;;;;5069149;28;20667;-75
2022/11/24 04:35:01;;;;;;;27.02;4.97;;;8.30;99.90;;;;;;5073899;28;20222;-75
2022/11/24 04:37:26;;;;;;;27.95;5.30;;;8.30;99.90;;;;;;5072187;28;20185;-76
2022/11/24 04:39:53;;;;;;;25.65;4.53;;;8.30;99.90;;;;;;5069461;28;20178;-78
2022/11/24 04:42:20;;;;;;;28.23;4.43;;;8.20;99.90;;;;;;5059729;28;20608;-78
2022/11/24 04:44:45;;;;;;;21.92;4.72;;;8.20;99.90;;;;;;5066976;28;20260;-78
2022/11/24 04:47:18;;;;;;;26.88;5.13;;;8.30;99.90;;;;;;5070550;28;20214;-77
2022/11/24 04:49:46;;;;;;;22.20;4.65;;;8.20;99.90;;;;;;5071641;28;20182;-79
2022/11/24 04:52:11;;;;;;;23.33;4.47;;;8.20;99.90;;;;;;5076812;28;20654;-77
2022/11/24 04:54:37;;;;;;;25.02;4.22;;;8.20;99.90;;;;;;5058378;28;20305;-77
2022/11/24 04:57:03;;;;;;;22.60;4.18;;;8.20;99.90;;;;;;5057587;28;20221;-76
2022/11/24 04:59:29;;;;;;;19.95;4.28;;;8.20;99.90;;;;;;5061645;28;20185;-80
2022/11/24 05:01:54;;;;;;;24.23;4.68;;;8.20;99.90;;;;;;5069213;28;20187;-81
2022/11/24 05:04:20;;;;;;;27.77;4.53;;;8.20;99.90;;;;;;5061244;28;20190;-77
2022/11/24 05:06:46;;;;;;;27.48;4.95;;;8.20;99.90;;;;;;5055801;28;21570;-77
2022/11/24 05:09:16;;;;;;;22.27;4.38;;;8.20;99.90;;;;;;5069738;28;20253;-76
2022/11/24 05:11:42;;;;;;;29.80;4.35;;;8.20;99.90;;;;;;5061522;28;20536;-76
2022/11/24 05:14:08;;;;;;;25.05;4.50;;;8.20;99.90;;;;;;5065681;28;20661;-77
2022/11/24 05:16:34;;;;;;;23.60;4.47;;;8.20;99.90;;;;;;5067010;28;20187;-76
2022/11/24 05:19:00;;;;;;;25.40;4.15;;;8.20;99.90;;;;;;5071742;28;20191;-77
2022/11/24 05:21:27;;;;;;;24.75;4.63;;;8.10;99.90;;;;;;5073023;28;20182;-76
2022/11/24 05:23:53;;;;;;;21.00;4.40;;;8.20;99.90;;;;;;5068748;28;20183;-82
2022/11/24 05:26:18;;;;;;;20.75;4.40;;;8.10;99.90;;;;;;5063014;28;20189;-77
2022/11/24 05:28:44;;;;;;;20.23;4.53;;;8.10;99.90;;;;;;5071219;28;20608;-77
2022/11/24 05:31:10;;;;;;;18.98;4.43;;;8.20;99.90;;;;;;5070898;28;20273;-77
2022/11/24 05:33:36;;;;;;;18.88;4.22;;;8.10;99.90;;;;;;5057680;28;20234;-76
2022/11/24 05:36:05;;;;;;;26.33;4.75;;;8.10;99.90;;;;;;5057148;28;20214;-78
2022/11/24 05:38:32;;;;;;;23.13;4.75;;;8.10;99.90;;;;;;5070799;28;20542;-75
2022/11/24 05:41:05;;;;;;;23.17;4.07;;;8.10;99.90;;;;;;5072760;28;20179;-76
2022/11/24 05:43:31;;;;;;;14.32;3.90;;;8.10;99.90;;;;;;5070202;28;20182;-75
2022/11/24 05:46:00;;;;;;;26.65;4.65;;;8.10;99.90;;;;;;5069455;28;20182;-75
2022/11/24 05:48:26;;;;;;;23.23;4.40;;;8.10;99.90;;;;;;5070896;28;20229;-76
2022/11/24 05:50:56;;;;;;;22.10;4.07;;;8.00;99.90;;;;;;5072946;28;20598;-75
2022/11/24 05:53:22;;;;;;;19.27;4.40;;;8.10;99.90;;;;;;5071272;28;20178;-75
2022/11/24 05:55:48;;;;;;;26.65;4.30;;;8.00;99.90;;;;;;5069026;28;20280;-75
2022/11/24 05:58:14;;;;;;;20.98;4.05;;;8.00;99.90;;;;;;5068239;28;20547;-75
2022/11/24 06:00:40;;;;;;;21.23;3.83;;;8.00;99.90;;;;;;5069597;28;20660;-75
2022/11/24 06:03:05;;;;;;;23.23;4.22;;;8.00;99.90;;;;;;5060301;28;20274;-75
2022/11/24 06:05:31;;;;;;;22.67;4.68;;;8.00;99.90;;;;;;5076533;28;20666;-75
2022/11/24 06:07:59;;;;;;;26.80;4.13;;;8.00;99.90;;;;;;5058501;28;20188;-75
2022/11/24 06:10:25;;;;;;;30.00;4.10;;;8.00;99.90;;;;;;5078609;28;20179;-75
2022/11/24 06:12:51;;;;;;;20.20;4.05;;;8.00;99.90;;;;;;5059437;28;20645;-74
2022/11/24 06:15:17;;;;;;;22.33;4.47;;;8.00;99.90;;;;;;5074576;28;20232;-75
2022/11/24 06:17:43;;;;;;;23.13;4.82;;;8.00;99.90;;;;;;5074544;28;20178;-77
2022/11/24 06:20:10;;;;;;;21.20;4.53;;;8.00;99.90;;;;;;5074304;28;20269;-76
2022/11/24 06:22:36;;;;;;;23.25;3.90;;;8.00;99.90;;;;;;5075328;28;20182;-74
2022/11/24 06:25:02;;;;;;;21.60;4.13;;;8.00;99.90;;;;;;5072596;28;20276;-76
2022/11/24 06:27:28;;;;;;;23.48;4.10;;;8.00;99.90;;;;;;5063768;28;20265;-77
2022/11/24 06:29:54;;;;;;;20.50;4.20;;;8.00;99.90;;;;;;5071667;28;20286;-76
2022/11/24 06:32:19;;;;;;;20.42;3.78;;;8.00;99.90;;;;;;5060060;28;20341;-76
2022/11/24 06:34:45;;;;;;;21.17;4.22;;;8.00;99.90;;;;;;5068116;28;20272;-76
2022/11/24 06:37:12;;;;;;;19.52;3.72;;;8.00;99.90;;;;;;5075219;28;20174;-77
2022/11/24 06:39:37;;;;;;;16.45;3.65;;;8.00;99.90;;;;;;5070458;28;20223;-76
2022/11/24 06:42:03;;;;;;;23.60;4.50;;;8.00;99.90;;;;;;5068481;28;20213;-76
2022/11/24 06:44:29;;;;;;;19.27;4.15;;;8.00;99.90;;;;;;5072691;28;20194;-75
2022/11/24 06:46:55;;;;;;;19.13;3.90;;;8.00;99.90;;;;;;5075070;28;20206;-75
2022/11/24 06:49:20;;;;;;;15.25;3.25;;;8.00;99.90;;;;;;5068442;28;20191;-75
2022/11/24 06:51:46;;;;;;;20.15;3.45;;;8.00;99.90;;;;;;5072105;28;20223;-74
2022/11/24 06:54:14;;;;;;;19.80;4.05;;;8.00;99.90;;;;;;5073836;28;20319;-74
2022/11/24 06:56:40;;;;;;;17.90;3.92;;;7.90;99.90;;;;;;5072961;28;20205;-76
2022/11/24 06:59:05;;;;;;;15.57;3.90;;;8.00;99.90;;;;;;5070516;28;20224;-75
2022/11/24 07:01:31;;;;;;;17.10;3.60;;;8.00;99.90;;;;;;5058361;28;20339;-77
2022/11/24 07:03:58;;;;;;;20.05;3.78;;;8.00;99.90;;;;;;5070618;28;20550;-75
2022/11/24 07:06:25;;;;;;;21.75;3.65;;;8.00;99.90;;;;;;5095708;28;20182;-74
2022/11/24 07:08:51;;;;;;;16.75;4.15;;;8.00;99.90;;;;;;5074420;28;20560;-74
2022/11/24 07:11:19;;;;;;;22.23;3.70;;;8.00;99.90;;;;;;5062129;28;20174;-80
2022/11/24 07:13:46;;;;;;;18.90;3.67;;;8.00;99.90;;;;;;5070432;28;20182;-75
2022/11/24 07:16:22;;;;;;;18.92;4.00;;;8.00;99.90;;;;;;5075401;28;20225;-75
2022/11/24 07:18:50;;;;;;;15.63;3.97;;;8.00;99.90;;;;;;5072390;28;20541;-75
2022/11/24 07:21:19;;;;;;;20.58;4.13;;;8.00;99.90;;;;;;5065506;28;20199;-75
2022/11/24 07:23:48;;;;;;;19.80;4.07;;;8.00;99.90;;;;;;5082743;28;20183;-75
2022/11/24 07:26:14;;;;;;;19.42;3.53;;;8.00;99.90;;;;;;5070664;28;20179;-76
2022/11/24 07:28:40;;;;;;;25.27;4.32;;;8.00;99.90;;;;;;5071453;28;20689;-75
2022/11/24 07:31:07;;;;;;;20.63;4.60;;;8.00;99.90;;;;;;5073028;28;20210;-75
2022/11/24 07:33:34;;;;;;;19.90;4.50;;;8.00;99.90;;;;;;5072161;28;20526;-75
2022/11/24 07:36:00;;;;;;;17.38;4.50;;;8.10;99.90;;;;;;5065832;28;20218;-79
2022/11/24 07:38:28;;;;;;;19.20;4.47;;;8.10;99.90;;;;;;5085084;28;20240;-75
2022/11/24 07:40:57;;;;;;;18.67;4.40;;;8.10;99.90;;;;;;5074066;28;20531;-75
2022/11/24 07:43:23;;;;;;;20.85;5.03;;;8.10;99.90;;;;;;5073202;28;20555;-74
2022/11/24 07:45:52;;;;;;;17.13;3.70;;;8.10;99.90;;;;;;5070313;28;20197;-77
2022/11/24 07:48:18;;;;;;;20.58;4.90;;;8.10;99.90;;;;;;5067056;28;20187;-77
2022/11/24 07:50:43;;;;;;;17.13;4.15;;;8.20;99.90;;;;;;5073240;28;20178;-74
2022/11/24 07:53:09;;;;;;;24.77;4.68;;;8.10;99.90;;;;;;5073929;28;20251;-74
2022/11/24 07:55:35;;;;;;;27.65;5.05;;;8.20;99.90;;;;;;5072602;28;20620;-74
2022/11/24 07:58:01;;;;;;;22.77;4.22;;;8.20;99.90;;;;;;5069697;28;20237;-74
2022/11/24 08:00:27;;;;;;;17.70;4.85;;;8.30;99.90;;;;;;5071669;28;20622;-76
2022/11/24 08:02:53;;;;;;;19.83;4.60;;;8.30;99.90;;;;;;5065020;28;20185;-76
2022/11/24 08:05:19;;;;;;;15.00;4.43;;;8.40;99.90;;;;;;5072483;28;20190;-78
2022/11/24 08:07:45;;;;;;;20.55;4.90;;;8.50;99.90;;;;;;5066110;28;20265;-75
2022/11/24 08:10:10;;;;;;;19.58;4.97;;;8.50;99.90;;;;;;5071040;28;20241;-75
2022/11/24 08:12:36;;;;;;;23.23;5.00;;;8.60;99.90;;;;;;5064727;28;20171;-76
2022/11/24 08:15:02;;;;;;;23.48;4.70;;;8.60;99.90;;;;;;5059220;28;20209;-74
2022/11/24 08:17:28;;;;;;;19.52;4.82;;;8.70;99.90;;;;;;5074286;28;20202;-74
2022/11/24 08:19:54;;;;;;;16.33;4.60;;;8.80;99.90;;;;;;5067466;28;20190;-74
2022/11/24 08:22:20;;;;;;;20.98;5.05;;;8.90;99.90;;;;;;5073060;28;20182;-75
2022/11/24 08:24:47;;;;;;;19.30;4.95;;;9.10;99.90;;;;;;5073033;28;20223;-75
2022/11/24 08:27:16;;;;;;;19.65;4.90;;;9.40;99.90;;;;;;5060947;28;20654;-74
2022/11/24 08:29:42;;;;;;;21.02;4.53;;;9.70;99.90;;;;;;5071589;28;20210;-74
2022/11/24 08:32:09;;;;;;;22.10;5.22;;;10.10;99.90;;;;;;5068530;28;20214;-75
2022/11/24 08:34:35;;;;;;;19.10;5.13;;;10.20;99.90;;;;;;5074034;28;20217;-75
2022/11/24 08:37:05;;;;;;;22.63;5.18;;;10.40;99.90;;;;;;5060135;28;20190;-75
2022/11/24 08:39:31;;;;;;;23.80;5.10;;;10.50;99.90;;;;;;5070013;28;20197;-75
2022/11/24 08:41:57;;;;;;;23.63;5.30;;;10.70;99.90;;;;;;5067078;28;20178;-78
2022/11/24 08:44:23;;;;;;;16.70;5.20;;;10.90;99.90;;;;;;5072346;28;20557;-76
2022/11/24 08:46:49;;;;;;;17.52;4.82;;;11.10;99.90;;;;;;5061995;28;20190;-79
2022/11/24 08:49:15;;;;;;;22.45;5.22;;;11.40;99.90;;;;;;5069991;28;20315;-75
2022/11/24 08:51:42;;;;;;;16.92;4.50;;;11.70;99.90;;;;;;5073350;28;20193;-75
2022/11/24 08:54:09;;;;;;;18.50;4.82;;;11.90;99.90;;;;;;5072646;28;20187;-75
2022/11/24 08:56:35;;;;;;;19.90;4.95;;;12.20;99.90;;;;;;5064323;28;20213;-78
2022/11/24 08:59:01;;;;;;;19.95;5.13;;;12.40;99.90;;;;;;5065637;28;20187;-76
2022/11/24 09:01:28;;;;;;;15.55;4.60;;;12.60;99.90;;;;;;5072322;28;20190;-75
2022/11/24 09:03:53;;;;;;;22.88;5.18;;;12.80;99.90;;;;;;5071075;28;20201;-75
2022/11/24 09:06:22;;;;;;;17.90;4.88;;;13.00;99.90;;;;;;5081083;28;20630;-79
2022/11/24 09:08:48;;;;;;;20.52;4.97;;;13.20;99.90;;;;;;5059249;28;20838;-76
2022/11/24 09:11:15;;;;;;;22.67;5.35;;;13.40;99.90;;;;;;5059434;28;20212;-76
2022/11/24 09:13:42;;;;;;;16.17;4.63;;;13.60;99.90;;;;;;5067835;28;20548;-78
2022/11/24 09:16:13;;;;;;;16.95;4.45;;;13.80;99.90;;;;;;5070918;28;20232;-76
2022/11/24 09:18:39;;;;;;;14.82;4.30;;;14.00;99.90;;;;;;5059519;28;21518;-76
2022/11/24 09:21:14;;;;;;;13.20;4.55;;;14.10;99.90;;;;;;5070322;28;20233;-76
2022/11/24 09:23:40;;;;;;;15.15;4.28;;;14.10;99.90;;;;;;5071712;28;20261;-76
2022/11/24 09:26:08;;;;;;;12.23;4.57;;;14.00;99.90;;;;;;5073586;28;20179;-76
2022/11/24 09:28:34;;;;;;;18.27;4.60;;;13.80;99.90;;;;;;5061498;28;20285;-80
2022/11/24 09:31:05;;;;;;;13.00;4.40;;;13.50;99.90;;;;;;5066950;28;20278;-75
2022/11/24 09:33:32;;;;;;;14.50;4.53;;;13.30;99.90;;;;;;5071849;28;20221;-78
2022/11/24 09:35:58;;;;;;;15.00;4.40;;;13.20;99.90;;;;;;5074527;28;20214;-76
2022/11/24 09:38:24;;;;;;;13.75;3.92;;;13.30;99.90;;;;;;5064984;28;20206;-78
2022/11/24 09:40:51;;;;;;;15.85;4.07;;;13.40;99.90;;;;;;5064974;28;20186;-76
2022/11/24 09:43:38;;;;;;;15.25;4.13;;;13.60;99.90;;;;;;5068953;28;20185;-76
2022/11/24 09:46:17;;;;;;;20.08;4.20;;;13.80;99.90;;;;;;5071441;28;20280;-75
2022/11/24 09:48:48;;;;;;;12.63;3.85;;;14.00;99.90;;;;;;5074676;28;20894;-77
2022/11/24 09:51:15;;;;;;;16.15;4.13;;;14.20;99.90;;;;;;5057083;28;20174;-75
2022/11/24 09:53:49;;;;;;;14.35;3.90;;;14.40;99.90;;;;;;5066955;28;20198;-76
2022/11/24 09:56:27;;;;;;;11.88;3.28;;;14.60;99.90;;;;;;5072407;28;20202;-77
2022/11/24 09:58:56;;;;;;;9.10;3.30;;;14.80;99.90;;;;;;5068075;28;20218;-76
2022/11/24 10:01:33;;;;;;;9.75;3.20;;;15.00;99.90;;;;;;5059101;28;20286;-78
2022/11/24 10:04:00;;;;;;;12.02;3.13;;;15.10;99.90;;;;;;5059346;28;20183;-76
2022/11/24 10:06:30;;;;;;;10.15;3.00;;;15.20;99.90;;;;;;5070624;28;20245;-77
2022/11/24 10:09:30;;;;;;;10.95;2.78;;;15.40;99.90;;;;;;5058429;28;20183;-77
2022/11/24 10:12:29;;;;;;;7.82;2.45;;;15.50;99.90;;;;;;5058381;28;20174;-80
2022/11/24 10:15:17;;;;;;;8.43;2.75;;;15.60;99.90;;;;;;5068277;28;20217;-78
2022/11/24 10:17:46;;;;;;;7.25;2.45;;;15.70;99.90;;;;;;5064853;28;20253;-76
2022/11/24 10:20:18;;;;;;;10.75;2.70;;;15.70;99.90;;;;;;5067667;28;20211;-77
2022/11/24 10:22:50;;;;;;;7.90;2.50;;;15.80;99.90;;;;;;5063846;28;20249;-77
2022/11/24 10:25:29;;;;;;;8.32;2.58;;;15.80;99.90;;;;;;5069124;28;20193;-76
2022/11/24 10:28:06;;;;;;;15.52;2.80;;;15.80;99.90;;;;;;5067172;28;20261;-76
2022/11/24 10:30:31;;;;;;;9.57;2.88;;;15.90;99.90;;;;;;5068720;28;20178;-76
2022/11/24 10:33:03;;;;;;;11.50;2.90;;;15.90;99.90;;;;;;5069715;28;20293;-76
2022/11/24 10:35:34;;;;;;;8.48;2.70;;;16.00;99.90;;;;;;5069936;28;20256;-76
2022/11/24 10:38:18;;;;;;;7.88;2.80;;;16.10;99.90;;;;;;5063900;28;20339;-76
2022/11/24 10:40:52;;;;;;;8.55;2.60;;;16.30;99.90;;;;;;5065519;28;20618;-76
2022/11/24 10:43:18;;;;;;;11.93;2.70;;;16.40;99.90;;;;;;5066978;28;20197;-77
2022/11/24 10:45:44;;;;;;;9.05;2.20;;;16.50;99.90;;;;;;5059162;28;20211;-77
2022/11/24 10:48:33;;;;;;;6.82;2.25;;;16.60;99.90;;;;;;5063366;28;20186;-76
2022/11/24 10:51:19;;;;;;;6.00;2.22;;;16.60;99.90;;;;;;5064419;28;20583;-75
2022/11/24 10:53:47;;;;;;;9.93;2.35;;;16.60;99.90;;;;;;5077524;28;20175;-76
2022/11/24 10:56:12;;;;;;;8.98;2.22;;;16.60;99.90;;;;;;5055485;28;20218;-75
2022/11/24 10:58:38;;;;;;;9.90;2.20;;;16.30;99.90;;;;;;5068029;28;20222;-75
2022/11/24 11:01:13;;;;;;;7.70;2.63;;;16.10;99.90;;;;;;5088474;28;20654;-76
2022/11/24 11:03:47;;;;;;;10.32;2.28;;;15.80;99.90;;;;;;5088533;28;20184;-77
2022/11/24 11:06:27;;;;;;;7.22;2.30;;;15.70;99.90;;;;;;5087330;28;20181;-75
2022/11/24 11:09:08;;;;;;;8.52;2.13;;;15.70;99.90;;;;;;5072998;28;20536;-76
2022/11/24 11:11:38;;;;;;;7.22;2.50;;;15.70;99.90;;;;;;5054518;28;20191;-76
2022/11/24 11:14:06;;;;;;;7.22;2.33;;;15.80;99.90;;;;;;5071471;28;20232;-79
2022/11/24 11:16:42;;;;;;;7.25;2.22;;;16.00;99.90;;;;;;5073785;28;20218;-76
2022/11/24 11:19:35;;;;;;;10.50;2.53;;;16.00;99.90;;;;;;5063226;28;20281;-76
2022/11/24 11:22:03;;;;;;;8.32;2.13;;;16.10;99.90;;;;;;5058328;28;20633;-77
2022/11/24 11:24:29;;;;;;;8.75;2.22;;;16.20;99.90;;;;;;5066666;28;20189;-78
2022/11/24 11:27:03;;;;;;;12.23;2.05;;;16.30;99.90;;;;;;5074848;28;20174;-81
2022/11/24 11:29:30;;;;;;;11.45;2.55;;;16.50;99.70;;;;;;5070574;28;20687;-77
2022/11/24 11:31:59;;;;;;;6.05;1.90;;;16.60;99.60;;;;;;5065326;28;20189;-80
2022/11/24 11:34:25;;;;;;;7.38;2.33;;;16.60;99.40;;;;;;5064913;28;20184;-77
2022/11/24 11:36:55;;;;;;;6.80;2.60;;;16.70;99.30;;;;;;5062506;28;20598;-77
2022/11/24 11:39:36;;;;;;;7.43;2.22;;;16.90;99.20;;;;;;5072746;28;20209;-77
2022/11/24 11:42:07;;;;;;;8.85;2.40;;;16.80;98.90;;;;;;5069733;28;20178;-78
2022/11/24 11:44:57;;;;;;;7.65;2.53;;;16.80;98.80;;;;;;5057233;28;20511;-77
2022/11/24 11:47:42;;;;;;;5.28;2.20;;;16.90;98.70;;;;;;5065223;28;20183;-77
2022/11/24 11:50:16;;;;;;;8.60;2.33;;;16.90;98.60;;;;;;5074959;28;20240;-77
2022/11/24 11:52:42;;;;;;;7.03;2.08;;;17.00;98.40;;;;;;5072193;28;20178;-77
2022/11/24 11:55:32;;;;;;;8.23;2.30;;;17.00;98.00;;;;;;5064737;28;20213;-77
2022/11/24 11:58:06;;;;;;;10.43;2.42;;;17.10;98.20;;;;;;5071310;28;20234;-79
2022/11/24 12:00:38;;;;;;;7.25;2.60;;;17.10;98.10;;;;;;5060959;28;20890;-77
2022/11/24 12:03:30;;;;;;;8.20;2.70;;;17.20;98.00;;;;;;5086809;28;20174;-78
2022/11/24 12:06:28;;;;;;;7.78;2.47;;;17.30;97.70;;;;;;5085507;28;20178;-77
2022/11/24 12:09:28;;;;;;;6.72;2.40;;;17.30;97.60;;;;;;5070178;28;20171;-78
2022/11/24 12:12:05;;;;;;;10.90;2.47;;;17.20;97.40;;;;;;5055374;28;20271;-78
2022/11/24 12:14:46;;;;;;;10.98;2.80;;;17.20;97.50;;;;;;5071702;28;20649;-78
2022/11/24 12:17:30;;;;;;;8.50;2.45;;;17.20;97.50;;;;;;5087671;28;20182;-77
2022/11/24 12:20:12;;;;;;;11.18;2.92;;;17.10;97.50;;;;;;5067406;28;20270;-82
2022/11/24 12:23:03;;;;;;;12.32;3.00;;;17.10;97.60;;;;;;5060842;28;20256;-77
2022/11/24 12:25:54;;;;;;;11.95;3.17;;;17.00;97.60;;;;;;5085865;28;20260;-82
2022/11/24 12:28:46;;;;;;;10.38;2.83;;;17.00;97.40;;;;;;5068452;28;20235;-77
2022/11/24 12:31:49;;;;;;;11.15;3.13;;;16.90;97.50;;;;;;5072926;28;20175;-77
2022/11/24 12:34:31;;;;;;;11.43;2.53;;;16.90;97.60;;;;;;5054311;28;20171;-84
2022/11/24 12:37:05;;;;;;;10.57;2.60;;;16.90;97.80;;;;;;5072470;28;20638;-80
2022/11/24 12:39:52;;;;;;;11.15;2.90;;;16.90;97.80;;;;;;5066382;28;20252;-78
2022/11/24 12:42:33;;;;;;;14.57;2.83;;;17.00;97.70;;;;;;5067124;28;20177;-80
2022/11/24 12:45:02;;;;;;;11.30;2.55;;;17.00;97.70;;;;;;5075674;28;20529;-75
2022/11/24 12:47:46;;;;;;;12.82;2.55;;;17.00;97.80;;;;;;5070788;28;20171;-76
2022/11/24 12:50:22;;;;;;;13.68;2.75;;;16.90;97.70;;;;;;5060283;28;20186;-81
2022/11/24 12:53:10;;;;;;;17.83;3.00;;;16.90;98.20;;;;;;5063056;28;20167;-77
2022/11/24 12:55:37;;;;;;;11.50;3.08;;;16.90;97.90;;;;;;5069304;28;20607;-79